Time;durP1;ratioP1;P1;durP2;ratioP2;P2;SDS_P1;SDS_P2;PMS_P1;PMS_P2;Temp;Humidity;BMP_temperature;BMP_pressure;BME280_temperature;BME280_humidity;BME280_pressure;Samples;Min_cycle;Max_cycle;Signal;HPM_P1;HPM_P2
2021/04/29 00:01:06;;;;;;;32.40;19.60;;;3.80;89.20;;;;;;5052909;28;20024;-78
2021/04/29 00:03:34;;;;;;;40.45;21.70;;;3.80;89.30;;;;;;5053568;28;20017;-78
2021/04/29 00:06:00;;;;;;;41.35;24.42;;;3.80;89.40;;;;;;5052288;28;20433;-78
2021/04/29 00:08:26;;;;;;;44.03;25.17;;;3.80;89.60;;;;;;5053817;28;20043;-78
2021/04/29 00:10:52;;;;;;;44.22;25.20;;;3.70;89.60;;;;;;5053640;28;20025;-79
2021/04/29 00:13:17;;;;;;;44.05;26.25;;;3.70;89.60;;;;;;5053690;28;20021;-78
2021/04/29 00:15:47;;;;;;;50.10;26.88;;;3.70;89.70;;;;;;5054059;28;20068;-78
2021/04/29 00:18:14;;;;;;;52.55;27.65;;;3.70;89.80;;;;;;5053773;28;20023;-78
2021/04/29 00:20:40;;;;;;;53.53;29.35;;;3.70;89.70;;;;;;5053346;28;20025;-78
2021/04/29 00:23:05;;;;;;;52.60;29.88;;;3.60;90.00;;;;;;5053438;28;20039;-78
2021/04/29 00:25:31;;;;;;;58.85;30.08;;;3.60;90.00;;;;;;5052012;28;20111;-78
2021/04/29 00:27:57;;;;;;;53.80;29.40;;;3.60;90.00;;;;;;5053643;28;20036;-78
2021/04/29 00:30:22;;;;;;;59.45;31.13;;;3.50;90.00;;;;;;5053155;28;20079;-78
2021/04/29 00:32:48;;;;;;;48.15;28.15;;;3.60;90.30;;;;;;5053321;28;20029;-78
2021/04/29 00:35:14;;;;;;;52.53;28.27;;;3.50;90.20;;;;;;5053326;28;20033;-78
2021/04/29 00:37:40;;;;;;;50.88;29.75;;;3.40;90.10;;;;;;5051924;28;20116;-78
2021/04/29 00:40:06;;;;;;;57.33;29.73;;;3.40;90.20;;;;;;5051781;28;20032;-78
2021/04/29 00:42:38;;;;;;;55.25;31.55;;;3.40;90.50;;;;;;5053155;28;20046;-78
2021/04/29 00:45:09;;;;;;;55.20;30.08;;;3.40;90.50;;;;;;5051727;28;20032;-78
2021/04/29 00:47:35;;;;;;;58.60;32.85;;;3.40;90.60;;;;;;5053126;28;20028;-78
2021/04/29 00:50:04;;;;;;;62.05;32.05;;;3.30;90.70;;;;;;5053154;28;20061;-78
2021/04/29 00:52:30;;;;;;;49.45;28.73;;;3.20;90.70;;;;;;5052990;28;20814;-78
2021/04/29 00:54:56;;;;;;;49.30;29.63;;;3.20;90.70;;;;;;5052862;28;20033;-78
2021/04/29 00:57:24;;;;;;;50.63;29.90;;;3.10;90.70;;;;;;5051873;28;20025;-78
2021/04/29 00:59:50;;;;;;;52.40;30.17;;;3.10;90.80;;;;;;5053067;28;20075;-78
2021/04/29 01:02:16;;;;;;;52.78;27.88;;;3.10;91.00;;;;;;5051693;28;20025;-78
2021/04/29 01:04:53;;;;;;;46.90;25.08;;;3.10;91.10;;;;;;5053016;28;20096;-78
2021/04/29 01:07:20;;;;;;;39.85;24.00;;;3.00;91.00;;;;;;5052918;28;20539;-78
2021/04/29 01:09:59;;;;;;;40.53;24.75;;;2.90;91.00;;;;;;5051892;28;20079;-78
2021/04/29 01:12:36;;;;;;;38.83;23.77;;;2.90;91.00;;;;;;5056239;28;20056;-78
2021/04/29 01:15:03;;;;;;;36.63;20.83;;;2.90;91.00;;;;;;5055408;28;20033;-78
2021/04/29 01:17:31;;;;;;;33.15;20.33;;;2.90;91.00;;;;;;5055236;28;20120;-78
2021/04/29 01:20:47;;;;;;;35.35;20.00;;;2.90;91.10;;;;;;5056579;28;20382;-78
2021/04/29 01:23:28;;;;;;;38.83;19.60;;;2.90;91.40;;;;;;5014528;28;20357;-78
2021/04/29 01:26:01;;;;;;;40.30;22.35;;;2.90;91.10;;;;;;4998291;28;20032;-78
2021/04/29 01:28:28;;;;;;;39.97;23.02;;;2.90;91.30;;;;;;5037578;28;20048;-78
2021/04/29 01:30:55;;;;;;;46.00;24.30;;;2.80;91.20;;;;;;5056314;28;20086;-78
2021/04/29 01:33:21;;;;;;;45.55;22.92;;;2.80;91.20;;;;;;5056578;28;20529;-78
2021/04/29 01:35:47;;;;;;;45.78;23.30;;;2.80;91.20;;;;;;5056174;28;20104;-78
2021/04/29 01:38:14;;;;;;;47.17;21.35;;;2.80;91.50;;;;;;5056176;28;20071;-78
2021/04/29 01:40:40;;;;;;;37.90;20.05;;;2.70;91.40;;;;;;5056046;28;20433;-78
2021/04/29 01:43:07;;;;;;;41.88;20.88;;;2.70;91.50;;;;;;5056123;28;20025;-78
2021/04/29 01:45:34;;;;;;;34.40;18.38;;;2.70;91.50;;;;;;5055981;28;20017;-78
2021/04/29 01:48:00;;;;;;;35.00;19.15;;;2.70;91.40;;;;;;5056316;28;20100;-78
2021/04/29 01:50:25;;;;;;;39.03;19.80;;;2.70;91.70;;;;;;5055900;28;20456;-78
2021/04/29 01:52:52;;;;;;;43.75;21.83;;;2.60;91.50;;;;;;5054515;28;20025;-78
2021/04/29 01:55:18;;;;;;;45.22;22.15;;;2.60;91.60;;;;;;5056171;28;20036;-78
2021/04/29 01:57:45;;;;;;;44.50;23.45;;;2.60;91.70;;;;;;5056411;28;20025;-78
2021/04/29 02:00:11;;;;;;;48.45;25.20;;;2.60;91.70;;;;;;5055553;28;20499;-78
2021/04/29 02:02:37;;;;;;;43.25;23.98;;;2.50;91.80;;;;;;5054319;28;20111;-79
2021/04/29 02:05:04;;;;;;;50.95;27.02;;;2.50;91.80;;;;;;5055647;28;20482;-79
2021/04/29 02:07:29;;;;;;;48.08;27.83;;;2.40;92.00;;;;;;5055628;28;20029;-79
2021/04/29 02:09:55;;;;;;;55.42;29.63;;;2.40;91.90;;;;;;5055603;28;20482;-79
2021/04/29 02:12:23;;;;;;;63.17;33.60;;;2.40;92.00;;;;;;5054230;28;20040;-79
2021/04/29 02:14:55;;;;;;;62.22;31.40;;;2.30;92.10;;;;;;5054685;28;20378;-79
2021/04/29 02:17:55;;;;;;;57.00;30.85;;;2.30;92.10;;;;;;5055506;28;20029;-77
2021/04/29 02:20:22;;;;;;;60.80;30.70;;;2.30;92.30;;;;;;5055238;28;20021;-77
2021/04/29 02:22:49;;;;;;;53.95;28.77;;;2.30;92.10;;;;;;5053288;28;20035;-77
2021/04/29 02:25:19;;;;;;;56.30;30.27;;;2.30;92.20;;;;;;5055590;28;20100;-77
2021/04/29 02:27:44;;;;;;;58.87;31.97;;;2.20;92.30;;;;;;5055151;28;20476;-77
2021/04/29 02:30:12;;;;;;;61.58;32.30;;;2.30;92.60;;;;;;5055212;28;20025;-78
2021/04/29 02:32:39;;;;;;;62.03;34.20;;;2.20;92.50;;;;;;5054503;28;20044;-79
2021/04/29 02:35:06;;;;;;;58.35;32.13;;;2.20;92.60;;;;;;5052792;28;20048;-78
2021/04/29 02:37:33;;;;;;;50.10;26.80;;;2.20;92.60;;;;;;5054419;28;20036;-78
2021/04/29 02:40:00;;;;;;;53.28;27.67;;;2.20;92.40;;;;;;5054486;28;20035;-78
2021/04/29 02:42:26;;;;;;;50.15;27.33;;;2.20;92.40;;;;;;5053150;28;20020;-77
2021/04/29 02:44:52;;;;;;;53.92;30.02;;;2.20;92.30;;;;;;5054123;28;20017;-79
2021/04/29 02:47:19;;;;;;;53.70;30.23;;;2.20;92.60;;;;;;5054633;28;20112;-77
2021/04/29 02:49:45;;;;;;;57.85;29.20;;;2.20;92.50;;;;;;5053320;28;20041;-78
2021/04/29 02:52:11;;;;;;;54.83;29.63;;;2.20;92.40;;;;;;5054354;28;20033;-78
2021/04/29 02:54:37;;;;;;;65.22;32.20;;;2.20;92.40;;;;;;5054463;28;20040;-78
2021/04/29 02:57:03;;;;;;;51.17;30.92;;;2.30;92.50;;;;;;5053247;28;20029;-78
2021/04/29 02:59:29;;;;;;;52.22;29.60;;;2.30;92.60;;;;;;5054252;28;20036;-78
2021/04/29 03:01:55;;;;;;;57.47;29.05;;;2.30;92.50;;;;;;5054423;28;20024;-79
2021/04/29 03:04:21;;;;;;;48.17;27.42;;;2.30;92.40;;;;;;5053325;28;20025;-80
2021/04/29 03:06:46;;;;;;;51.22;28.02;;;2.30;92.40;;;;;;5054433;28;20193;-79
2021/04/29 03:09:12;;;;;;;47.00;27.90;;;2.40;92.40;;;;;;5054611;28;20509;-78
2021/04/29 03:11:38;;;;;;;45.60;26.98;;;2.40;92.40;;;;;;5053000;28;20422;-79
2021/04/29 03:14:04;;;;;;;44.60;26.67;;;2.40;92.40;;;;;;5053722;28;20105;-81
2021/04/29 03:16:30;;;;;;;45.00;25.80;;;2.40;92.40;;;;;;5052553;28;20059;-82
2021/04/29 03:18:56;;;;;;;51.97;27.73;;;2.50;92.40;;;;;;5052532;28;20088;-83
2021/04/29 03:21:22;;;;;;;56.83;30.13;;;2.60;92.40;;;;;;5052107;28;20112;-82
2021/04/29 03:23:47;;;;;;;63.15;33.15;;;2.60;92.40;;;;;;5053515;28;20018;-83
2021/04/29 03:26:13;;;;;;;70.57;34.90;;;2.70;92.40;;;;;;5053311;28;20104;-83
2021/04/29 03:28:39;;;;;;;66.60;34.47;;;2.70;92.50;;;;;;5053531;28;20079;-83
2021/04/29 03:31:05;;;;;;;75.03;37.85;;;2.70;92.40;;;;;;5052412;28;20029;-83
2021/04/29 03:33:30;;;;;;;72.40;37.42;;;2.80;92.60;;;;;;5053516;28;20036;-83
2021/04/29 03:35:56;;;;;;;72.47;35.72;;;2.80;92.70;;;;;;5052533;28;20111;-83
2021/04/29 03:38:22;;;;;;;75.28;36.95;;;2.90;92.60;;;;;;5052173;28;20029;-83
2021/04/29 03:40:47;;;;;;;76.35;39.00;;;2.90;92.60;;;;;;5052265;28;20025;-79
2021/04/29 03:43:13;;;;;;;72.65;37.60;;;3.00;92.70;;;;;;5051833;28;20028;-79
2021/04/29 03:45:39;;;;;;;88.18;41.05;;;3.00;92.80;;;;;;5053246;28;20047;-84
2021/04/29 03:48:05;;;;;;;90.93;43.70;;;3.10;92.80;;;;;;5052275;28;20028;-83
2021/04/29 03:50:31;;;;;;;82.55;41.13;;;3.20;93.10;;;;;;5051152;28;20554;-83
2021/04/29 03:52:57;;;;;;;95.35;44.15;;;3.30;92.70;;;;;;5052190;28;20059;-83
2021/04/29 03:55:23;;;;;;;91.50;45.33;;;3.40;92.60;;;;;;5053275;28;20390;-83
2021/04/29 03:57:48;;;;;;;85.20;41.72;;;3.50;92.70;;;;;;5052176;28;20555;-83
2021/04/29 04:00:14;;;;;;;85.38;42.50;;;3.70;92.80;;;;;;5053487;28;20028;-83
2021/04/29 04:02:41;;;;;;;77.65;39.35;;;3.80;92.70;;;;;;5052411;28;20516;-84
2021/04/29 04:05:07;;;;;;;80.60;40.95;;;4.00;92.40;;;;;;5053451;28;20049;-84
2021/04/29 04:07:33;;;;;;;81.00;40.80;;;4.10;92.70;;;;;;5052100;28;20021;-83
2021/04/29 04:09:59;;;;;;;72.72;37.05;;;4.30;92.50;;;;;;5053780;28;20029;-83
2021/04/29 04:12:26;;;;;;;63.25;35.13;;;4.50;92.60;;;;;;5052262;28;20025;-83
2021/04/29 04:14:52;;;;;;;55.67;31.00;;;4.70;92.50;;;;;;5053075;28;20474;-83
2021/04/29 04:17:17;;;;;;;40.00;23.83;;;4.90;92.60;;;;;;5052031;28;20025;-83
2021/04/29 04:19:43;;;;;;;31.38;20.25;;;5.20;92.50;;;;;;5052127;28;20032;-83
2021/04/29 04:22:09;;;;;;;31.63;20.02;;;5.50;92.70;;;;;;5052307;28;20025;-84
2021/04/29 04:24:34;;;;;;;25.83;18.75;;;5.90;93.00;;;;;;5052294;28;20368;-83
2021/04/29 04:27:00;;;;;;;25.40;17.92;;;6.30;93.20;;;;;;5053356;28;20044;-83
2021/04/29 04:29:26;;;;;;;24.45;16.05;;;6.60;92.80;;;;;;5053335;28;20071;-83
2021/04/29 04:31:51;;;;;;;26.63;17.58;;;6.80;92.50;;;;;;5052037;28;20021;-83
2021/04/29 04:34:17;;;;;;;23.58;16.40;;;7.10;92.80;;;;;;5053456;28;20651;-81
2021/04/29 04:36:43;;;;;;;30.33;16.13;;;7.50;92.70;;;;;;5053170;28;20414;-84
2021/04/29 04:39:08;;;;;;;27.95;16.75;;;7.70;92.50;;;;;;5051625;28;20521;-84
2021/04/29 04:41:34;;;;;;;20.50;15.05;;;8.00;92.60;;;;;;5053235;28;20120;-84
2021/04/29 04:43:59;;;;;;;21.75;15.38;;;8.30;92.40;;;;;;5053188;28;20051;-84
2021/04/29 04:46:25;;;;;;;23.75;16.20;;;8.60;92.40;;;;;;5054643;28;20025;-85
2021/04/29 04:48:51;;;;;;;22.35;16.55;;;8.80;92.10;;;;;;5055843;28;20079;-83
2021/04/29 04:51:17;;;;;;;20.65;13.82;;;9.00;92.10;;;;;;5057145;28;20056;-84
2021/04/29 04:53:42;;;;;;;23.17;16.15;;;9.20;91.80;;;;;;5057038;28;20056;-84
2021/04/29 04:56:08;;;;;;;22.10;14.60;;;9.40;91.80;;;;;;5055695;28;20431;-83
2021/04/29 04:58:34;;;;;;;22.20;14.77;;;9.60;91.70;;;;;;5056930;28;20060;-83
2021/04/29 05:01:00;;;;;;;18.25;12.57;;;9.80;91.70;;;;;;5055385;28;20056;-83
2021/04/29 05:03:26;;;;;;;16.83;12.88;;;10.00;91.50;;;;;;5056414;28;20024;-83
2021/04/29 05:05:52;;;;;;;21.35;13.80;;;10.20;91.40;;;;;;5055532;28;20443;-84
2021/04/29 05:08:18;;;;;;;17.77;12.65;;;10.20;91.60;;;;;;5056895;28;20052;-84
2021/04/29 05:10:44;;;;;;;19.42;12.50;;;10.40;91.30;;;;;;5055712;28;20159;-85
2021/04/29 05:13:10;;;;;;;19.30;12.10;;;10.50;91.10;;;;;;5056757;28;20391;-85
2021/04/29 05:15:37;;;;;;;15.02;12.02;;;10.60;91.00;;;;;;5056399;28;20033;-85
2021/04/29 05:18:03;;;;;;;18.50;12.43;;;10.60;91.00;;;;;;5056647;28;20106;-84
2021/04/29 05:20:29;;;;;;;13.85;11.32;;;10.60;90.80;;;;;;5056371;28;20025;-85
2021/04/29 05:22:55;;;;;;;14.30;11.43;;;10.70;90.70;;;;;;5056524;28;20021;-84
2021/04/29 05:25:22;;;;;;;15.35;11.25;;;10.70;90.60;;;;;;5055360;28;20060;-84
2021/04/29 05:27:49;;;;;;;16.27;10.93;;;10.70;90.60;;;;;;5056495;28;20067;-85
2021/04/29 05:30:15;;;;;;;13.98;11.55;;;10.70;90.50;;;;;;5056597;28;20017;-84
2021/04/29 05:32:41;;;;;;;17.80;11.48;;;10.80;90.40;;;;;;5056286;28;20086;-84
2021/04/29 05:35:07;;;;;;;15.55;11.25;;;10.80;90.30;;;;;;5055391;28;20025;-85
2021/04/29 05:37:33;;;;;;;17.55;12.27;;;10.80;90.00;;;;;;5055078;28;20053;-84
2021/04/29 05:39:58;;;;;;;18.38;13.40;;;10.80;89.50;;;;;;5056466;28;20060;-85
2021/04/29 05:42:24;;;;;;;17.85;13.00;;;10.80;87.80;;;;;;5056354;28;20021;-84
2021/04/29 05:44:50;;;;;;;16.60;12.38;;;10.80;87.20;;;;;;5054962;28;20017;-84
2021/04/29 05:47:15;;;;;;;16.48;11.30;;;10.90;86.90;;;;;;5054912;28;20029;-84
2021/04/29 05:49:45;;;;;;;15.50;11.98;;;11.00;87.30;;;;;;5056062;28;20178;-84
2021/04/29 05:52:11;;;;;;;13.73;11.82;;;11.00;86.40;;;;;;5054815;28;20402;-84
2021/04/29 05:54:37;;;;;;;17.02;11.60;;;11.00;86.00;;;;;;5055977;28;20040;-84
2021/04/29 05:57:04;;;;;;;16.55;11.48;;;11.10;86.20;;;;;;5055602;28;20471;-84
2021/04/29 05:59:30;;;;;;;19.17;12.70;;;11.20;86.30;;;;;;5055288;28;20025;-84
2021/04/29 06:01:56;;;;;;;17.48;12.95;;;11.20;86.20;;;;;;5054474;28;20036;-84
2021/04/29 06:04:21;;;;;;;16.40;12.52;;;11.30;85.50;;;;;;5054542;28;20414;-84
2021/04/29 06:06:48;;;;;;;14.00;11.20;;;11.40;85.60;;;;;;5054479;28;20025;-83
2021/04/29 06:09:15;;;;;;;22.92;13.40;;;11.50;85.60;;;;;;5055672;28;20021;-84
2021/04/29 06:11:41;;;;;;;19.73;11.93;;;11.60;84.80;;;;;;5055610;28;20446;-84
2021/04/29 06:14:06;;;;;;;16.98;10.50;;;11.70;84.60;;;;;;5055578;28;20020;-84
2021/04/29 06:16:32;;;;;;;16.38;10.63;;;11.80;83.40;;;;;;5054311;28;20379;-84
2021/04/29 06:18:58;;;;;;;14.32;10.10;;;11.80;83.60;;;;;;5054135;28;20475;-84
2021/04/29 06:21:23;;;;;;;17.83;10.13;;;11.90;80.90;;;;;;5055634;28;20340;-84
2021/04/29 06:23:49;;;;;;;12.60;8.32;;;11.90;79.30;;;;;;5055677;28;20071;-84
2021/04/29 06:26:15;;;;;;;11.50;7.70;;;11.90;76.90;;;;;;5054035;28;20025;-84
2021/04/29 06:28:41;;;;;;;10.90;7.70;;;12.00;77.90;;;;;;5053866;28;20021;-83
2021/04/29 06:31:08;;;;;;;10.95;8.50;;;12.00;76.70;;;;;;5055448;28;20106;-83
2021/04/29 06:33:33;;;;;;;8.60;7.00;;;12.10;76.40;;;;;;5055120;28;20024;-83
2021/04/29 06:35:59;;;;;;;11.90;9.00;;;12.20;76.00;;;;;;5054955;28;20025;-83
2021/04/29 06:38:25;;;;;;;15.65;9.07;;;12.30;75.90;;;;;;5055037;28;20020;-83
2021/04/29 06:40:51;;;;;;;11.27;8.05;;;12.30;75.40;;;;;;5053645;28;20037;-83
2021/04/29 06:43:17;;;;;;;14.38;8.82;;;12.40;75.40;;;;;;5054896;28;20079;-83
2021/04/29 06:45:42;;;;;;;12.45;8.48;;;12.40;75.00;;;;;;5053586;28;20017;-83
2021/04/29 06:48:09;;;;;;;10.60;7.20;;;12.50;75.20;;;;;;5055074;28;20027;-83
2021/04/29 06:50:39;;;;;;;12.35;7.18;;;12.60;75.30;;;;;;5053430;28;20509;-83
2021/04/29 06:53:05;;;;;;;12.23;7.95;;;12.80;74.90;;;;;;5054731;28;20558;-83
2021/04/29 06:55:32;;;;;;;9.80;6.82;;;12.90;73.70;;;;;;5053363;28;20102;-83
2021/04/29 06:57:58;;;;;;;11.60;6.88;;;13.00;72.10;;;;;;5054643;28;20025;-83
2021/04/29 07:00:24;;;;;;;8.50;6.10;;;13.10;70.50;;;;;;5053333;28;20074;-83
2021/04/29 07:02:51;;;;;;;11.43;6.25;;;13.10;70.40;;;;;;5054460;28;20028;-82
2021/04/29 07:05:17;;;;;;;10.02;6.20;;;13.20;70.50;;;;;;5053282;28;20056;-82
2021/04/29 07:07:43;;;;;;;10.20;6.80;;;13.20;70.10;;;;;;5054406;28;20498;-82
2021/04/29 07:10:09;;;;;;;10.85;6.47;;;13.40;69.80;;;;;;5054193;28;20025;-80
2021/04/29 07:12:35;;;;;;;13.27;6.13;;;13.40;68.50;;;;;;5054366;28;20108;-79
2021/04/29 07:15:00;;;;;;;8.63;6.45;;;13.40;67.30;;;;;;5053072;28;20489;-80
2021/04/29 07:17:26;;;;;;;7.28;6.03;;;13.40;65.00;;;;;;5054644;28;20029;-80
2021/04/29 07:19:52;;;;;;;7.18;5.28;;;13.40;65.20;;;;;;5052967;28;20024;-79
2021/04/29 07:22:18;;;;;;;8.50;6.45;;;13.40;66.30;;;;;;5054252;28;20043;-77
2021/04/29 07:24:44;;;;;;;8.82;6.35;;;13.50;65.00;;;;;;5052931;28;20032;-78
2021/04/29 07:27:10;;;;;;;8.88;6.32;;;13.40;66.00;;;;;;5054139;28;20394;-78
2021/04/29 07:29:36;;;;;;;11.57;6.25;;;13.50;65.90;;;;;;5054120;28;20027;-78
2021/04/29 07:32:02;;;;;;;6.57;5.70;;;13.50;65.80;;;;;;5054062;28;20056;-78
2021/04/29 07:34:28;;;;;;;5.88;5.25;;;13.60;66.70;;;;;;5052783;28;20474;-78
2021/04/29 07:36:56;;;;;;;7.70;5.18;;;13.70;66.00;;;;;;5054033;28;20035;-79
2021/04/29 07:39:22;;;;;;;11.50;5.30;;;13.80;65.70;;;;;;5052762;28;20025;-79
2021/04/29 07:41:47;;;;;;;6.68;5.10;;;14.00;65.30;;;;;;5054114;28;20032;-79
2021/04/29 07:44:15;;;;;;;5.45;4.95;;;14.00;64.20;;;;;;5052374;28;20021;-78
2021/04/29 07:46:41;;;;;;;8.77;5.82;;;14.10;65.10;;;;;;5052643;28;20029;-79
2021/04/29 07:49:07;;;;;;;8.02;5.80;;;14.20;65.00;;;;;;5053807;28;20052;-79
2021/04/29 07:51:33;;;;;;;8.10;5.60;;;14.20;63.30;;;;;;5052506;28;20417;-79
2021/04/29 07:54:00;;;;;;;9.10;5.90;;;14.30;64.60;;;;;;5053563;28;20031;-79
2021/04/29 07:56:25;;;;;;;7.47;5.15;;;14.40;62.70;;;;;;5052490;28;20021;-79
2021/04/29 07:58:51;;;;;;;7.88;5.68;;;14.40;63.80;;;;;;5052452;28;20036;-79
2021/04/29 08:01:17;;;;;;;6.63;5.18;;;14.50;63.70;;;;;;5053827;28;20060;-78
2021/04/29 08:03:43;;;;;;;7.20;5.53;;;14.60;63.70;;;;;;5053304;28;20122;-78
2021/04/29 08:06:08;;;;;;;8.90;5.63;;;14.70;63.60;;;;;;5052344;28;20048;-78
2021/04/29 08:08:34;;;;;;;12.18;6.28;;;14.80;63.50;;;;;;5053519;28;20490;-78
2021/04/29 08:11:00;;;;;;;9.20;5.47;;;14.80;61.90;;;;;;5052228;28;20103;-78
2021/04/29 08:13:26;;;;;;;8.40;6.03;;;14.80;61.60;;;;;;5053669;28;20467;-78
2021/04/29 08:15:51;;;;;;;9.50;5.05;;;14.70;60.80;;;;;;5053293;28;20041;-78
2021/04/29 08:18:17;;;;;;;9.70;5.80;;;14.80;62.30;;;;;;5053888;28;20109;-78
2021/04/29 08:20:43;;;;;;;9.52;5.80;;;14.80;61.80;;;;;;5052600;28;20025;-78
2021/04/29 08:23:09;;;;;;;7.60;5.95;;;14.80;60.30;;;;;;5056179;28;20021;-79
2021/04/29 08:25:35;;;;;;;10.73;6.63;;;14.90;60.70;;;;;;5057711;28;20103;-78
2021/04/29 08:28:01;;;;;;;9.52;6.05;;;14.90;61.20;;;;;;5056140;28;20021;-79
2021/04/29 08:30:27;;;;;;;11.27;7.00;;;15.00;60.60;;;;;;5057366;28;20427;-78
2021/04/29 08:32:58;;;;;;;15.52;8.43;;;15.00;60.80;;;;;;5056144;28;20083;-78
2021/04/29 08:35:24;;;;;;;11.25;6.60;;;15.00;59.80;;;;;;5055998;28;20021;-78
2021/04/29 08:37:51;;;;;;;9.05;5.88;;;15.00;60.10;;;;;;5057277;28;20029;-78
2021/04/29 08:40:17;;;;;;;9.43;5.68;;;15.00;60.70;;;;;;5057181;28;20033;-78
2021/04/29 08:42:44;;;;;;;7.35;5.00;;;15.00;60.10;;;;;;5055808;28;20025;-78
2021/04/29 08:45:11;;;;;;;7.10;4.40;;;15.00;61.00;;;;;;5055855;28;20025;-79
2021/04/29 08:47:38;;;;;;;6.28;4.43;;;15.10;60.70;;;;;;5055209;28;20032;-78
2021/04/29 08:50:06;;;;;;;12.68;5.53;;;15.10;60.00;;;;;;5055499;28;20102;-78
2021/04/29 08:52:32;;;;;;;6.97;4.65;;;15.20;59.50;;;;;;5057025;28;20021;-79
2021/04/29 08:54:57;;;;;;;8.35;5.40;;;15.30;59.70;;;;;;5056889;28;20025;-78
2021/04/29 08:57:25;;;;;;;8.55;4.43;;;15.30;58.90;;;;;;5057159;28;20036;-78
2021/04/29 08:59:52;;;;;;;7.50;5.18;;;15.40;59.30;;;;;;5055560;28;20116;-78
2021/04/29 09:02:30;;;;;;;9.70;4.72;;;15.40;59.00;;;;;;5055305;28;20025;-79
2021/04/29 09:04:56;;;;;;;9.85;5.07;;;15.50;58.60;;;;;;5056787;28;20039;-79
2021/04/29 09:07:22;;;;;;;8.18;5.82;;;15.50;59.40;;;;;;5056721;28;20474;-78
2021/04/29 09:09:48;;;;;;;9.02;5.95;;;15.40;64.10;;;;;;5056957;28;20459;-78
2021/04/29 09:12:14;;;;;;;8.18;5.80;;;15.20;66.00;;;;;;5056537;28;20025;-78
2021/04/29 09:14:41;;;;;;;8.13;4.85;;;15.20;66.00;;;;;;5055316;28;20032;-79
2021/04/29 09:17:08;;;;;;;9.55;5.00;;;15.20;63.00;;;;;;5056408;28;20127;-79
2021/04/29 09:19:36;;;;;;;6.85;5.20;;;15.30;62.50;;;;;;5056812;28;20070;-79
2021/04/29 09:22:03;;;;;;;6.32;4.78;;;15.30;59.00;;;;;;5055037;28;20471;-79
2021/04/29 09:24:34;;;;;;;5.95;5.30;;;15.40;61.90;;;;;;5056399;28;20036;-79
2021/04/29 09:27:09;;;;;;;8.30;4.63;;;15.50;62.60;;;;;;5054970;28;20021;-79
2021/04/29 09:29:35;;;;;;;8.23;5.45;;;15.50;61.50;;;;;;5056260;28;20017;-78
2021/04/29 09:32:01;;;;;;;8.13;6.10;;;15.60;63.50;;;;;;5056315;28;20079;-78
2021/04/29 09:34:37;;;;;;;9.80;6.38;;;15.70;65.20;;;;;;5054917;28;20065;-78
2021/04/29 09:37:03;;;;;;;10.23;6.20;;;15.50;65.80;;;;;;5056473;28;20029;-78
2021/04/29 09:39:33;;;;;;;7.95;5.55;;;15.60;66.90;;;;;;5056443;28;20088;-79
2021/04/29 09:41:59;;;;;;;7.38;4.70;;;15.60;63.30;;;;;;5056216;28;20032;-78
2021/04/29 09:44:25;;;;;;;8.55;5.20;;;15.60;60.80;;;;;;5054805;28;20033;-78
2021/04/29 09:47:01;;;;;;;9.90;6.10;;;15.60;59.60;;;;;;5054698;28;20487;-79
2021/04/29 09:49:31;;;;;;;9.55;5.85;;;15.60;59.40;;;;;;5055988;28;20045;-79
2021/04/29 09:51:58;;;;;;;12.15;6.35;;;15.70;59.60;;;;;;5054671;28;20025;-79
2021/04/29 09:54:37;;;;;;;11.93;7.40;;;15.70;59.10;;;;;;5055838;28;20387;-79
2021/04/29 09:57:10;;;;;;;9.55;6.70;;;15.80;61.80;;;;;;5055740;28;20474;-79
2021/04/29 09:59:41;;;;;;;8.85;5.68;;;15.90;62.20;;;;;;5055786;28;20355;-79
2021/04/29 10:02:07;;;;;;;10.45;6.88;;;15.90;60.20;;;;;;5055723;28;20034;-79
2021/04/29 10:04:34;;;;;;;11.75;7.65;;;15.90;61.50;;;;;;5054358;28;20356;-79
2021/04/29 10:07:01;;;;;;;9.93;7.95;;;15.80;64.80;;;;;;5055945;28;20480;-79
2021/04/29 10:09:28;;;;;;;10.27;7.70;;;15.70;67.10;;;;;;5054277;28;20083;-79
2021/04/29 10:11:57;;;;;;;9.02;7.28;;;15.60;66.50;;;;;;5055537;28;20048;-79
2021/04/29 10:14:25;;;;;;;9.82;7.70;;;15.40;66.40;;;;;;5055534;28;20025;-76
2021/04/29 10:16:51;;;;;;;12.18;7.65;;;15.30;66.70;;;;;;5055768;28;20472;-78
2021/04/29 10:19:17;;;;;;;13.13;8.55;;;15.30;67.50;;;;;;5054095;28;20025;-78
2021/04/29 10:21:44;;;;;;;11.60;8.77;;;15.20;67.90;;;;;;5055186;28;20086;-79
2021/04/29 10:24:10;;;;;;;9.93;7.30;;;15.20;67.70;;;;;;5054074;28;20459;-78
2021/04/29 10:26:38;;;;;;;9.40;7.28;;;15.10;67.90;;;;;;5055370;28;20053;-78
2021/04/29 10:29:05;;;;;;;12.73;7.75;;;15.30;68.60;;;;;;5055146;28;20028;-79
2021/04/29 10:31:33;;;;;;;11.38;8.00;;;15.30;68.20;;;;;;5055067;28;20464;-81
2021/04/29 10:34:00;;;;;;;9.00;7.72;;;15.40;67.50;;;;;;5054988;28;20033;-79
2021/04/29 10:36:46;;;;;;;12.02;7.32;;;15.30;67.40;;;;;;5055254;28;20065;-83
2021/04/29 10:39:23;;;;;;;10.05;8.07;;;15.30;67.40;;;;;;5054933;28;20025;-79
2021/04/29 10:42:02;;;;;;;8.60;7.13;;;15.10;68.70;;;;;;5054636;28;20025;-78
2021/04/29 10:44:39;;;;;;;10.38;6.90;;;14.90;66.40;;;;;;5054282;28;20025;-78
2021/04/29 10:47:05;;;;;;;9.23;6.63;;;15.00;66.00;;;;;;5054807;28;20104;-77
2021/04/29 10:49:31;;;;;;;10.73;6.13;;;15.10;65.40;;;;;;5054720;28;20076;-79
2021/04/29 10:52:00;;;;;;;18.88;5.90;;;15.00;65.40;;;;;;5054979;28;20033;-78
2021/04/29 10:54:27;;;;;;;8.15;6.32;;;15.00;65.40;;;;;;5054695;28;20025;-78
2021/04/29 10:57:19;;;;;;;12.27;7.47;;;15.00;66.40;;;;;;5054535;28;20099;-78
2021/04/29 10:59:50;;;;;;;15.65;8.02;;;15.00;67.30;;;;;;5050732;28;20037;-78
2021/04/29 11:02:35;;;;;;;22.80;8.05;;;15.00;66.90;;;;;;5053431;28;20464;-86
2021/04/29 11:05:04;;;;;;;18.88;6.28;;;14.90;66.40;;;;;;5054285;28;20032;-77
2021/04/29 11:07:31;;;;;;;9.57;6.55;;;14.90;66.80;;;;;;5054495;28;20021;-80
2021/04/29 11:10:01;;;;;;;9.73;6.90;;;14.90;66.70;;;;;;5054359;28;20048;-78
2021/04/29 11:12:47;;;;;;;11.90;6.90;;;14.80;66.40;;;;;;5054612;28;20082;-78
2021/04/29 11:15:43;;;;;;;25.50;8.45;;;14.80;69.30;;;;;;5054224;28;20029;-78
2021/04/29 11:18:12;;;;;;;60.63;19.63;;;14.80;70.80;;;;;;5054148;28;20028;-77
2021/04/29 11:20:56;;;;;;;16.43;8.33;;;14.60;74.90;;;;;;5054506;28;20439;-76
2021/04/29 11:23:38;;;;;;;13.38;6.95;;;14.70;72.30;;;;;;5053897;28;20170;-78
2021/04/29 11:26:09;;;;;;;10.70;5.75;;;14.70;71.10;;;;;;5052841;28;20356;-79
2021/04/29 11:28:34;;;;;;;;;;;14.60;68.60;;;;;;5054744;28;20147;-78
2021/04/29 11:31:00;;;;;;;7.43;5.28;;;14.60;70.50;;;;;;5052716;28;19943;-80
2021/04/29 11:33:45;;;;;;;7.60;6.20;;;14.60;70.10;;;;;;5052780;28;20379;-81
2021/04/29 11:36:18;;;;;;;8.77;5.93;;;14.50;70.50;;;;;;5052666;28;20024;-79
2021/04/29 11:38:51;;;;;;;10.20;5.60;;;14.60;69.20;;;;;;5052577;28;20020;-80
2021/04/29 11:41:17;;;;;;;19.23;6.97;;;14.60;69.00;;;;;;5053772;28;20033;-78
2021/04/29 11:43:43;;;;;;;30.05;11.43;;;14.60;72.10;;;;;;5052607;28;20028;-80
2021/04/29 11:46:21;;;;;;;10.18;6.53;;;14.60;73.10;;;;;;5053796;28;20017;-79
2021/04/29 11:48:55;;;;;;;8.45;5.90;;;14.70;73.20;;;;;;5053853;28;20029;-82
2021/04/29 11:51:20;;;;;;;8.30;5.18;;;14.70;72.30;;;;;;5052320;28;20037;-78
2021/04/29 11:53:46;;;;;;;9.77;5.20;;;14.90;72.40;;;;;;5052354;28;20032;-79
2021/04/29 11:56:15;;;;;;;6.70;5.22;;;15.00;72.90;;;;;;5051529;28;20442;-78
2021/04/29 11:58:41;;;;;;;6.35;4.53;;;15.10;71.50;;;;;;5053466;28;20021;-79
2021/04/29 12:01:14;;;;;;;8.00;5.10;;;15.30;71.10;;;;;;5052400;28;20035;-77
2021/04/29 12:03:40;;;;;;;7.30;5.00;;;15.50;69.70;;;;;;5053725;28;20422;-77
2021/04/29 12:06:05;;;;;;;7.38;5.53;;;15.60;69.30;;;;;;5052045;28;20028;-78
2021/04/29 12:08:34;;;;;;;6.35;4.70;;;15.70;68.60;;;;;;5053212;28;20021;-78
2021/04/29 12:11:04;;;;;;;7.40;5.30;;;15.90;68.00;;;;;;5053382;28;20028;-77
2021/04/29 12:13:34;;;;;;;5.75;5.07;;;15.90;64.70;;;;;;5052867;28;20079;-79
2021/04/29 12:16:06;;;;;;;6.07;4.90;;;16.20;65.50;;;;;;5053730;28;20013;-78
2021/04/29 12:18:32;;;;;;;8.02;4.85;;;16.30;65.40;;;;;;5052059;28;20475;-78
2021/04/29 12:20:59;;;;;;;5.53;4.75;;;16.40;64.90;;;;;;5053218;28;20078;-78
2021/04/29 12:23:25;;;;;;;8.30;5.10;;;16.50;63.80;;;;;;5052057;28;20495;-78
2021/04/29 12:26:05;;;;;;;8.00;5.10;;;16.40;62.20;;;;;;5052024;28;20535;-79
2021/04/29 12:28:32;;;;;;;7.10;5.00;;;16.60;62.20;;;;;;5053360;28;20379;-78
2021/04/29 12:30:58;;;;;;;8.20;5.00;;;16.60;60.90;;;;;;5051944;28;20035;-79
2021/04/29 12:33:24;;;;;;;6.63;4.30;;;16.60;59.70;;;;;;5053338;28;20021;-79
2021/04/29 12:35:50;;;;;;;5.25;4.43;;;16.70;60.40;;;;;;5053260;28;20021;-78
2021/04/29 12:38:18;;;;;;;6.95;4.30;;;16.90;60.40;;;;;;5053479;28;20486;-79
2021/04/29 12:40:45;;;;;;;6.53;3.88;;;16.90;58.70;;;;;;5051847;28;20017;-79